Time,TemperatureF,DewpointF,PressureIn,WindDirection,WindDirectionDegrees,WindSpeedMPH,WindSpeedGustMPH,Humidity,HourlyPrecipIn,Conditions,Clouds,dailyrainin,SoftwareType,DateUTC
2013-02-26 00:00:00,37.6,25.7,30.00,NE,45,6.0,12.0,62,0.00,,,0.00,Wunderground v.1.13,2013-02-26 05:00:00,
2013-02-26 00:11:00,37.6,25.7,30.00,NE,39,6.0,6.0,62,0.00,,,0.00,Wunderground v.1.13,2013-02-26 05:11:00,
2013-02-26 00:20:00,37.5,26.4,30.00,NE,47,5.0,5.0,64,0.00,,,0.00,Wunderground v.1.13,2013-02-26 05:20:00,
2013-02-26 00:30:00,37.2,26.9,30.00,NNE,32,4.0,7.0,66,0.00,,,0.00,Wunderground v.1.13,2013-02-26 05:30:00,
2013-02-26 00:40:00,36.8,27.6,29.99,ENE,67,7.0,7.0,69,0.00,,,0.00,Wunderground v.1.13,2013-02-26 05:40:00,
2013-02-26 00:51:00,36.0,28.2,29.98,ENE,58,8.0,8.0,73,0.00,,,0.00,Wunderground v.1.13,2013-02-26 05:51:00,
2013-02-26 01:00:00,35.8,28.6,29.98,ENE,60,7.0,7.0,75,0.00,,,0.00,Wunderground v.1.13,2013-02-26 06:00:00,
2013-02-26 01:10:00,35.6,28.8,29.98,NNE,32,5.0,6.0,76,0.00,,,0.00,Wunderground v.1.13,2013-02-26 06:10:00,
2013-02-26 01:20:00,35.6,28.8,29.97,NE,51,6.0,7.0,76,0.00,,,0.00,Wunderground v.1.13,2013-02-26 06:20:00,
2013-02-26 01:30:00,35.5,28.7,29.97,NE,51,6.0,6.0,76,0.00,,,0.00,Wunderground v.1.13,2013-02-26 06:30:00,
2013-02-26 01:40:00,35.5,29.0,29.97,NNE,23,5.0,8.0,77,0.00,,,0.00,Wunderground v.1.13,2013-02-26 06:40:00,
2013-02-26 01:50:00,35.2,29.3,29.97,NNE,23,5.0,9.0,79,0.00,,,0.00,Wunderground v.1.13,2013-02-26 06:50:00,
2013-02-26 02:00:00,34.9,29.4,29.97,NE,44,7.0,13.0,80,0.00,,,0.00,Wunderground v.1.13,2013-02-26 07:00:00,
2013-02-26 02:10:00,34.4,29.8,29.95,NNE,28,7.0,7.0,83,0.00,,,0.00,Wunderground v.1.13,2013-02-26 07:10:00,
2013-02-26 02:20:00,34.0,30.3,29.93,NE,35,7.0,7.0,86,0.00,,,0.00,Wunderground v.1.13,2013-02-26 07:20:00,
2013-02-26 02:30:00,33.7,30.5,29.93,NE,45,7.0,14.0,88,0.00,,,0.01,Wunderground v.1.13,2013-02-26 07:30:00,
2013-02-26 02:40:00,33.5,30.6,29.93,NE,45,7.0,13.0,89,0.00,,,0.01,Wunderground v.1.13,2013-02-26 07:40:00,
2013-02-26 03:00:00,33.4,30.8,29.91,NNE,23,9.0,16.0,90,0.01,,,0.01,Wunderground v.1.13,2013-02-26 08:00:00,
2013-02-26 03:10:00,33.1,30.2,29.90,NE,35,10.0,10.0,89,0.00,,,0.02,Wunderground v.1.13,2013-02-26 08:10:00,
2013-02-26 03:20:00,33.1,30.8,29.89,NNE,15,10.0,11.0,91,0.00,,,0.02,Wunderground v.1.13,2013-02-26 08:20:00,
2013-02-26 03:31:00,33.1,31.0,29.89,NE,41,10.0,10.0,92,0.04,,,0.03,Wunderground v.1.13,2013-02-26 08:31:00,
2013-02-26 03:40:00,32.9,30.8,29.89,NE,40,8.0,8.0,92,0.05,,,0.04,Wunderground v.1.13,2013-02-26 08:40:00,
2013-02-26 03:50:00,32.9,30.8,29.89,NE,37,7.0,10.0,92,0.12,,,0.07,Wunderground v.1.13,2013-02-26 08:50:00,
2013-02-26 04:00:00,32.9,30.8,29.89,NE,44,9.0,10.0,92,0.11,,,0.08,Wunderground v.1.13,2013-02-26 09:00:00,
2013-02-26 04:10:00,32.9,30.8,29.88,NNE,19,9.0,13.0,92,0.16,,,0.10,Wunderground v.1.13,2013-02-26 09:10:00,
2013-02-26 04:20:00,32.9,30.8,29.88,NNE,23,8.0,10.0,92,0.11,,,0.14,Wunderground v.1.13,2013-02-26 09:20:00,
2013-02-26 04:30:00,32.9,30.8,29.88,North,10,8.0,9.0,92,0.15,,,0.15,Wunderground v.1.13,2013-02-26 09:30:00,
2013-02-26 04:40:00,32.9,30.8,29.89,North,360,7.0,13.0,92,0.11,,,0.17,Wunderground v.1.13,2013-02-26 09:40:00,
2013-02-26 04:50:00,32.8,30.7,29.89,NNE,32,9.0,10.0,92,0.15,,,0.21,Wunderground v.1.13,2013-02-26 09:50:00,
2013-02-26 05:01:00,32.8,30.7,29.88,NE,53,9.0,9.0,92,0.14,,,0.23,Wunderground v.1.13,2013-02-26 10:01:00,
2013-02-26 05:10:00,32.9,30.8,29.88,NE,40,8.0,10.0,92,0.13,,,0.25,Wunderground v.1.13,2013-02-26 10:10:00,
2013-02-26 05:20:00,32.9,30.8,29.88,NNE,23,10.0,17.0,92,0.13,,,0.27,Wunderground v.1.13,2013-02-26 10:20:00,
2013-02-26 05:30:00,32.9,30.8,29.88,NNE,21,9.0,9.0,92,0.14,,,0.28,Wunderground v.1.13,2013-02-26 10:30:00,
2013-02-26 05:40:00,32.9,30.8,29.88,NNE,19,7.0,16.0,92,0.09,,,0.30,Wunderground v.1.13,2013-02-26 10:40:00,
2013-02-26 05:50:00,32.9,30.8,29.88,NNE,30,9.0,9.0,92,0.10,,,0.32,Wunderground v.1.13,2013-02-26 10:50:00,
2013-02-26 06:01:00,32.9,30.8,29.86,NNE,22,9.0,9.0,92,0.11,,,0.34,Wunderground v.1.13,2013-02-26 11:01:00,
2013-02-26 06:20:00,32.9,31.1,29.86,NE,45,8.0,13.0,93,0.12,,,0.38,Wunderground v.1.13,2013-02-26 11:20:00,
2013-02-26 06:30:00,32.9,31.1,29.84,NE,34,10.0,15.0,93,0.13,,,0.41,Wunderground v.1.13,2013-02-26 11:30:00,
2013-02-26 06:41:00,32.9,31.1,29.82,NNE,13,10.0,10.0,93,0.08,,,0.42,Wunderground v.1.13,2013-02-26 11:41:00,
2013-02-26 06:51:00,32.9,31.1,29.81,NNE,15,10.0,10.0,93,0.07,,,0.43,Wunderground v.1.13,2013-02-26 11:51:00,
2013-02-26 07:00:00,33.1,31.3,29.81,NNE,22,9.0,9.0,93,0.11,,,0.45,Wunderground v.1.13,2013-02-26 12:00:00,
2013-02-26 07:11:00,33.2,31.4,29.81,NE,47,8.0,12.0,93,0.14,,,0.47,Wunderground v.1.13,2013-02-26 12:11:00,
2013-02-26 07:21:00,33.4,31.6,29.81,North,360,8.0,9.0,93,0.19,,,0.49,Wunderground v.1.13,2013-02-26 12:21:00,
2013-02-26 07:30:00,33.4,31.6,29.81,NE,36,7.0,13.0,93,0.23,,,0.54,Wunderground v.1.13,2013-02-26 12:30:00,
2013-02-26 07:40:00,33.5,31.7,29.81,NE,42,7.0,7.0,93,0.16,,,0.56,Wunderground v.1.13,2013-02-26 12:40:00,
2013-02-26 07:50:00,33.5,31.7,29.80,North,5,9.0,9.0,93,0.21,,,0.60,Wunderground v.1.13,2013-02-26 12:50:00,
2013-02-26 08:00:00,33.5,31.7,29.80,NE,38,8.0,8.0,93,0.07,,,0.62,Wunderground v.1.13,2013-02-26 13:00:00,
2013-02-26 08:10:00,33.5,31.7,29.78,North,355,9.0,9.0,93,0.17,,,0.63,Wunderground v.1.13,2013-02-26 13:10:00,
2013-02-26 08:20:00,33.7,31.9,29.79,NE,38,8.0,8.0,93,0.24,,,0.67,Wunderground v.1.13,2013-02-26 13:20:00,
2013-02-26 08:30:00,33.7,31.9,29.76,NE,45,9.0,18.0,93,0.18,,,0.74,Wunderground v.1.13,2013-02-26 13:30:00,
2013-02-26 08:40:00,33.7,32.2,29.76,ENE,62,7.0,7.0,94,0.17,,,0.75,Wunderground v.1.13,2013-02-26 13:40:00,
2013-02-26 08:50:00,33.8,32.3,29.76,ENE,58,5.0,5.0,94,0.27,,,0.79,Wunderground v.1.13,2013-02-26 13:50:00,
2013-02-26 09:00:00,34.0,32.5,29.76,NNE,23,4.0,4.0,94,0.15,,,0.82,Wunderground v.1.13,2013-02-26 14:00:00,
2013-02-26 09:10:00,34.1,32.6,29.79,NNE,19,2.0,6.0,94,0.08,,,0.84,Wunderground v.1.13,2013-02-26 14:10:00,
2013-02-26 09:21:00,34.1,32.6,29.78,NNE,25,6.0,6.0,94,0.23,,,0.87,Wunderground v.1.13,2013-02-26 14:21:00,
2013-02-26 09:31:00,34.3,32.8,29.76,NE,35,6.0,8.0,94,0.14,,,0.89,Wunderground v.1.13,2013-02-26 14:31:00,
2013-02-26 09:40:00,34.4,32.9,29.76,NNE,26,6.0,7.0,94,0.04,,,0.89,Wunderground v.1.13,2013-02-26 14:40:00,
2013-02-26 09:50:00,34.4,32.9,29.74,NE,46,8.0,8.0,94,0.00,,,0.90,Wunderground v.1.13,2013-02-26 14:50:00,
2013-02-26 10:00:00,34.6,33.1,29.74,NE,35,6.0,6.0,94,0.00,,,0.90,Wunderground v.1.13,2013-02-26 15:00:00,
2013-02-26 10:10:00,34.6,33.1,29.73,NNE,15,5.0,9.0,94,0.17,,,0.93,Wunderground v.1.13,2013-02-26 15:10:00,
2013-02-26 10:21:00,34.7,33.2,29.72,NNE,15,6.0,7.0,94,0.07,,,0.94,Wunderground v.1.13,2013-02-26 15:21:00,
2013-02-26 10:31:00,34.9,33.6,29.71,NE,38,6.0,8.0,95,0.04,,,0.94,Wunderground v.1.13,2013-02-26 15:31:00,
2013-02-26 10:40:00,35.0,33.7,29.71,North,360,6.0,6.0,95,0.00,,,0.94,Wunderground v.1.13,2013-02-26 15:40:00,
2013-02-26 10:50:00,35.2,33.9,29.71,NNE,24,7.0,7.0,95,0.00,,,0.95,Wunderground v.1.13,2013-02-26 15:50:00,
2013-02-26 11:00:00,35.2,33.9,29.71,NNE,27,8.0,8.0,95,0.00,,,0.95,Wunderground v.1.13,2013-02-26 16:00:00,
2013-02-26 11:10:00,35.5,34.2,29.68,NNE,28,6.0,6.0,95,0.14,,,0.97,Wunderground v.1.13,2013-02-26 16:10:00,
2013-02-26 11:21:00,35.6,34.3,29.67,NE,39,7.0,9.0,95,0.07,,,0.98,Wunderground v.1.13,2013-02-26 16:21:00,
2013-02-26 11:31:00,35.6,34.3,29.65,NNE,21,7.0,11.0,95,0.05,,,0.99,Wunderground v.1.13,2013-02-26 16:31:00,
2013-02-26 11:40:00,35.9,34.6,29.65,NNE,29,7.0,7.0,95,0.05,,,1.00,Wunderground v.1.13,2013-02-26 16:40:00,
2013-02-26 11:50:00,36.0,34.7,29.62,NE,36,8.0,8.0,95,0.05,,,1.00,Wunderground v.1.13,2013-02-26 16:50:00,
2013-02-26 12:00:00,36.3,35.0,29.60,NNE,23,4.0,10.0,95,0.05,,,1.00,Wunderground v.1.13,2013-02-26 17:00:00,
2013-02-26 12:11:00,36.5,35.5,29.60,NE,42,6.0,6.0,96,0.00,,,1.00,Wunderground v.1.13,2013-02-26 17:11:00,
2013-02-26 12:20:00,36.8,35.8,29.61,NE,36,6.0,7.0,96,0.00,,,1.01,Wunderground v.1.13,2013-02-26 17:20:00,
2013-02-26 12:30:00,36.9,35.9,29.61,NW,320,5.0,6.0,96,0.00,,,1.01,Wunderground v.1.13,2013-02-26 17:30:00,
2013-02-26 12:40:00,37.0,36.0,29.62,North,360,6.0,6.0,96,0.00,,,1.01,Wunderground v.1.13,2013-02-26 17:40:00,
2013-02-26 12:50:00,37.0,36.0,29.61,NNW,338,6.0,6.0,96,0.00,,,1.02,Wunderground v.1.13,2013-02-26 17:50:00,
2013-02-26 13:00:00,37.2,36.2,29.61,NNW,336,5.0,5.0,96,0.05,,,1.03,Wunderground v.1.13,2013-02-26 18:00:00,
2013-02-26 13:10:00,37.3,36.3,29.61,North,9,5.0,5.0,96,0.04,,,1.03,Wunderground v.1.13,2013-02-26 18:10:00,
2013-02-26 13:21:00,37.2,36.2,29.57,NNE,14,5.0,5.0,96,0.00,,,1.04,Wunderground v.1.13,2013-02-26 18:21:00,
2013-02-26 13:31:00,37.3,36.3,29.58,NW,311,6.0,6.0,96,0.00,,,1.04,Wunderground v.1.13,2013-02-26 18:31:00,
2013-02-26 13:40:00,37.6,36.6,29.58,North,355,3.0,3.0,96,0.00,,,1.05,Wunderground v.1.13,2013-02-26 18:40:00,
2013-02-26 13:50:00,37.6,36.6,29.59,NW,318,3.0,7.0,96,0.00,,,1.05,Wunderground v.1.13,2013-02-26 18:50:00,
2013-02-26 14:00:00,37.5,36.5,29.59,NNW,348,6.0,6.0,96,0.00,,,1.05,Wunderground v.1.13,2013-02-26 19:00:00,
2013-02-26 14:10:00,37.5,36.5,29.57,NNE,33,6.0,8.0,96,0.00,,,1.05,Wunderground v.1.13,2013-02-26 19:10:00,
2013-02-26 14:21:00,37.6,36.6,29.56,North,355,7.0,7.0,96,0.00,,,1.05,Wunderground v.1.13,2013-02-26 19:21:00,
2013-02-26 14:31:00,37.6,36.6,29.55,NNW,340,7.0,7.0,96,0.00,,,1.05,Wunderground v.1.13,2013-02-26 19:31:00,
2013-02-26 14:41:00,37.6,36.6,29.55,NNE,17,6.0,8.0,96,0.00,,,1.05,Wunderground v.1.13,2013-02-26 19:41:00,
2013-02-26 14:50:00,37.6,36.6,29.54,NNW,330,7.0,7.0,96,0.00,,,1.05,Wunderground v.1.13,2013-02-26 19:50:00,
2013-02-26 15:00:00,37.8,36.8,29.54,North,5,5.0,7.0,96,0.00,,,1.05,Wunderground v.1.13,2013-02-26 20:00:00,
2013-02-26 15:10:00,37.9,36.9,29.56,NNE,19,7.0,7.0,96,0.00,,,1.05,Wunderground v.1.13,2013-02-26 20:10:00,
2013-02-26 15:20:00,38.0,37.0,29.56,North,360,5.0,6.0,96,0.00,,,1.05,Wunderground v.1.13,2013-02-26 20:20:00,
2013-02-26 15:31:00,38.3,37.3,29.55,NNE,19,4.0,10.0,96,0.00,,,1.05,Wunderground v.1.13,2013-02-26 20:31:00,
2013-02-26 15:41:00,38.6,37.6,29.55,NNE,28,6.0,8.0,96,0.00,,,1.05,Wunderground v.1.13,2013-02-26 20:41:00,
2013-02-26 15:51:00,38.9,37.9,29.55,NNW,330,5.0,5.0,96,0.00,,,1.05,Wunderground v.1.13,2013-02-26 20:51:00,
2013-02-26 16:00:00,38.9,37.9,29.55,North,11,4.0,6.0,96,0.00,,,1.05,Wunderground v.1.13,2013-02-26 21:00:00,
2013-02-26 16:11:00,39.2,38.2,29.55,NNE,27,4.0,4.0,96,0.00,,,1.05,Wunderground v.1.13,2013-02-26 21:11:00,
2013-02-26 16:20:00,39.3,38.3,29.55,NNE,26,3.0,3.0,96,0.00,,,1.05,Wunderground v.1.13,2013-02-26 21:20:00,
2013-02-26 16:30:00,39.5,38.5,29.55,NE,36,1.0,1.0,96,0.00,,,1.05,Wunderground v.1.13,2013-02-26 21:30:00,
2013-02-26 16:41:00,39.9,38.9,29.54,NNW,341,2.0,4.0,96,0.00,,,1.05,Wunderground v.1.13,2013-02-26 21:41:00,
2013-02-26 16:51:00,39.8,38.8,29.54,North,360,2.0,3.0,96,0.00,,,1.05,Wunderground v.1.13,2013-02-26 21:51:00,
2013-02-26 17:00:00,40.1,39.1,29.54,North,360,1.0,1.0,96,0.00,,,1.05,Wunderground v.1.13,2013-02-26 22:00:00,
2013-02-26 17:11:00,40.1,39.1,29.54,North,360,2.0,2.0,96,0.00,,,1.05,Wunderground v.1.13,2013-02-26 22:11:00,
2013-02-26 17:20:00,40.2,39.2,29.54,North,360,1.0,1.0,96,0.00,,,1.05,Wunderground v.1.13,2013-02-26 22:20:00,
2013-02-26 17:30:00,40.2,39.2,29.54,NW,313,1.0,1.0,96,0.00,,,1.05,Wunderground v.1.13,2013-02-26 22:30:00,
2013-02-26 17:41:00,40.2,39.2,29.55,NW,313,1.0,1.0,96,0.00,,,1.05,Wunderground v.1.13,2013-02-26 22:41:00,
2013-02-26 17:51:00,40.2,39.2,29.54,NW,314,1.0,2.0,96,0.00,,,1.05,Wunderground v.1.13,2013-02-26 22:51:00,
2013-02-26 18:00:00,40.2,39.2,29.54,NW,314,2.0,2.0,96,0.00,,,1.05,Wunderground v.1.13,2013-02-26 23:00:00,
2013-02-26 18:11:00,40.2,39.2,29.54,NW,320,2.0,2.0,96,0.00,,,1.05,Wunderground v.1.13,2013-02-26 23:11:00,
2013-02-26 18:20:00,40.1,39.1,29.56,NNW,341,3.0,3.0,96,0.00,,,1.05,Wunderground v.1.13,2013-02-26 23:20:00,
2013-02-26 18:30:00,39.8,38.8,29.56,NNW,341,1.0,1.0,96,0.00,,,1.05,Wunderground v.1.13,2013-02-26 23:30:00,
2013-02-26 18:41:00,39.8,38.8,29.56,NNW,340,2.0,3.0,96,0.00,,,1.05,Wunderground v.1.13,2013-02-26 23:41:00,
2013-02-26 18:51:00,39.6,38.6,29.57,NNW,340,1.0,1.0,96,0.00,,,1.05,Wunderground v.1.13,2013-02-26 23:51:00,
2013-02-26 19:01:00,39.6,38.6,29.57,NNW,340,0.0,0.0,96,0.00,,,1.05,Wunderground v.1.13,2013-02-27 00:01:00,
2013-02-26 19:10:00,39.6,38.6,29.57,NNW,340,0.0,0.0,96,0.00,,,1.05,Wunderground v.1.13,2013-02-27 00:10:00,
2013-02-26 19:20:00,39.5,38.5,29.59,NNW,340,0.0,0.0,96,0.00,,,1.05,Wunderground v.1.13,2013-02-27 00:20:00,
2013-02-26 19:31:00,39.3,38.3,29.59,NNW,340,0.0,0.0,96,0.00,,,1.05,Wunderground v.1.13,2013-02-27 00:31:00,
2013-02-26 19:40:00,39.2,38.2,29.59,NNW,340,0.0,0.0,96,0.00,,,1.05,Wunderground v.1.13,2013-02-27 00:40:00,
2013-02-26 19:50:00,38.9,37.9,29.59,NNW,340,0.0,0.0,96,0.00,,,1.05,Wunderground v.1.13,2013-02-27 00:50:00,
2013-02-26 20:00:00,38.3,37.3,29.58,N/A,-737280,0.0,0.0,96,0.00,,,1.05,Wunderground v.1.13,2013-02-27 01:00:00,
2013-02-26 20:11:00,37.9,36.9,29.58,NNW,340,0.0,0.0,96,0.00,,,1.05,Wunderground v.1.13,2013-02-27 01:11:00,
2013-02-26 20:21:00,37.6,36.6,29.59,NNW,340,0.0,0.0,96,0.00,,,1.05,Wunderground v.1.13,2013-02-27 01:21:00,
2013-02-26 20:30:00,37.6,36.6,29.59,NNW,340,0.0,0.0,96,0.00,,,1.05,Wunderground v.1.13,2013-02-27 01:30:00,
2013-02-26 20:40:00,37.8,37.0,29.59,NNW,340,0.0,0.0,97,0.00,,,1.05,Wunderground v.1.13,2013-02-27 01:40:00,
2013-02-26 20:51:00,38.0,37.2,29.59,NNW,340,0.0,0.0,97,0.00,,,1.05,Wunderground v.1.13,2013-02-27 01:51:00,
2013-02-26 21:01:00,38.5,37.7,29.59,NNW,340,0.0,0.0,97,0.00,,,1.05,Wunderground v.1.13,2013-02-27 02:01:00,
2013-02-26 21:11:00,38.9,38.1,29.59,NNW,340,0.0,0.0,97,0.00,,,1.05,Wunderground v.1.13,2013-02-27 02:11:00,
2013-02-26 21:21:00,39.1,38.3,29.59,NNW,340,0.0,0.0,97,0.00,,,1.05,Wunderground v.1.13,2013-02-27 02:21:00,
2013-02-26 21:30:00,39.1,38.3,29.59,NNW,340,0.0,0.0,97,0.00,,,1.05,Wunderground v.1.13,2013-02-27 02:30:00,
2013-02-26 21:40:00,39.2,38.4,29.60,NNW,338,0.0,2.0,97,0.00,,,1.05,Wunderground v.1.13,2013-02-27 02:40:00,
2013-02-26 21:50:00,39.3,38.5,29.61,NNW,340,0.0,0.0,97,0.00,,,1.05,Wunderground v.1.13,2013-02-27 02:50:00,
2013-02-26 22:01:00,39.6,38.8,29.61,SW,221,0.0,0.0,97,0.00,,,1.05,Wunderground v.1.13,2013-02-27 03:01:00,
2013-02-26 22:11:00,39.6,38.8,29.61,SSW,205,0.0,0.0,97,0.00,,,1.05,Wunderground v.1.13,2013-02-27 03:11:00,
2013-02-26 22:21:00,39.9,39.1,29.61,SSW,205,0.0,0.0,97,0.00,,,1.05,Wunderground v.1.13,2013-02-27 03:21:00,
2013-02-26 22:30:00,40.1,39.3,29.61,SSW,210,1.0,2.0,97,0.00,,,1.05,Wunderground v.1.13,2013-02-27 03:30:00,
2013-02-26 22:40:00,40.3,39.5,29.61,SSW,192,1.0,3.0,97,0.00,,,1.05,Wunderground v.1.13,2013-02-27 03:40:00,
2013-02-26 22:50:00,40.5,39.7,29.61,SSW,203,1.0,4.0,97,0.00,,,1.05,Wunderground v.1.13,2013-02-27 03:50:00,
2013-02-26 23:01:00,40.6,40.1,29.61,South,177,2.0,2.0,98,0.00,,,1.05,Wunderground v.1.13,2013-02-27 04:01:00,
2013-02-26 23:11:00,40.9,40.4,29.61,South,187,2.0,2.0,98,0.00,,,1.05,Wunderground v.1.13,2013-02-27 04:11:00,
2013-02-26 23:20:00,41.2,40.7,29.61,South,190,4.0,4.0,98,0.00,,,1.05,Wunderground v.1.13,2013-02-27 04:20:00,
2013-02-26 23:30:00,41.2,40.7,29.61,South,190,3.0,3.0,98,0.00,,,1.05,Wunderground v.1.13,2013-02-27 04:30:00,
2013-02-26 23:40:00,41.3,40.8,29.60,SSW,203,2.0,6.0,98,0.00,,,1.05,Wunderground v.1.13,2013-02-27 04:40:00,
2013-02-26 23:50:00,41.3,40.8,29.60,SSW,203,2.0,2.0,98,0.00,,,1.05,Wunderground v.1.13,2013-02-27 04:50:00,